createdAt,value
2018-06-21T00:00:05.049Z,3.50
2018-06-21T00:02:32.523Z,3.57
2018-06-21T00:04:59.993Z,6.37
2018-06-21T00:07:27.482Z,5.00
2018-06-21T00:09:54.978Z,7.30
2018-06-21T00:12:22.455Z,6.43
2018-06-21T00:14:49.940Z,6.07
2018-06-21T00:17:17.417Z,5.77
2018-06-21T00:19:44.904Z,5.10
2018-06-21T00:22:12.360Z,5.17
2018-06-21T00:24:39.841Z,5.27
2018-06-21T00:27:07.312Z,4.40
2018-06-21T00:29:34.829Z,4.60
2018-06-21T00:32:02.333Z,4.70
2018-06-21T00:34:30.362Z,5.73
2018-06-21T00:36:57.934Z,4.87
2018-06-21T00:39:25.572Z,5.67
2018-06-21T00:41:53.013Z,4.93
2018-06-21T00:44:20.594Z,5.80
2018-06-21T00:46:48.239Z,7.30
2018-06-21T00:49:15.711Z,6.07
2018-06-21T00:51:43.236Z,10.77
2018-06-21T00:54:11.814Z,4.90
2018-06-21T00:56:39.335Z,5.50
2018-06-21T00:59:06.814Z,4.27
2018-06-21T01:01:34.316Z,5.00
2018-06-21T01:04:01.813Z,5.83
2018-06-21T01:06:29.333Z,5.03
2018-06-21T01:08:56.823Z,6.23
2018-06-21T01:11:24.347Z,7.27
2018-06-21T01:13:51.817Z,6.90
2018-06-21T01:16:19.283Z,5.77
2018-06-21T01:18:47.251Z,7.47
2018-06-21T01:21:14.816Z,5.30
2018-06-21T01:23:42.276Z,6.63
2018-06-21T01:26:09.723Z,6.87
2018-06-21T01:28:37.222Z,6.83
2018-06-21T01:31:04.785Z,5.47
2018-06-21T01:33:32.273Z,7.83
2018-06-21T01:35:59.734Z,5.73
2018-06-21T01:38:27.249Z,6.20
2018-06-21T01:40:54.742Z,6.73
2018-06-21T01:43:22.241Z,7.90
2018-06-21T01:45:49.725Z,6.37
2018-06-21T01:48:17.218Z,12.93
2018-06-21T01:50:44.709Z,5.67
2018-06-21T01:53:12.150Z,6.43
2018-06-21T01:55:39.635Z,8.00
2018-06-21T01:58:07.108Z,7.20
2018-06-21T02:00:34.598Z,7.17
2018-06-21T02:03:02.073Z,6.60
2018-06-21T02:05:29.807Z,6.73
2018-06-21T02:07:57.317Z,8.10
2018-06-21T02:10:24.792Z,6.17
2018-06-21T02:12:52.252Z,6.77
2018-06-21T02:15:19.720Z,7.10
2018-06-21T02:17:47.192Z,9.13
2018-06-21T02:20:14.676Z,6.50
2018-06-21T02:22:42.141Z,5.60
2018-06-21T02:25:09.638Z,8.00
2018-06-21T02:27:37.327Z,8.27
2018-06-21T02:30:04.846Z,5.97
2018-06-21T02:32:33.021Z,6.37
2018-06-21T02:35:00.531Z,8.10
2018-06-21T02:37:28.012Z,6.00
2018-06-21T02:39:55.501Z,6.23
2018-06-21T02:42:23.003Z,5.43
2018-06-21T02:44:50.505Z,5.13
2018-06-21T02:47:17.992Z,5.67
2018-06-21T02:49:45.487Z,7.20
2018-06-21T02:52:13.781Z,6.93
2018-06-21T02:54:41.277Z,6.93
2018-06-21T02:57:08.768Z,5.63
2018-06-21T02:59:36.620Z,7.30
2018-06-21T03:02:04.165Z,6.37
2018-06-21T03:04:31.633Z,7.80
2018-06-21T03:06:59.110Z,5.93
2018-06-21T03:09:26.605Z,6.77
2018-06-21T03:11:54.090Z,6.70
2018-06-21T03:14:21.566Z,5.77
2018-06-21T03:16:49.067Z,7.53
2018-06-21T03:19:16.537Z,7.67
2018-06-21T03:21:44.018Z,5.70
2018-06-21T03:24:11.534Z,8.43
2018-06-21T03:26:39.003Z,6.40
2018-06-21T03:29:06.463Z,7.00
2018-06-21T03:31:34.112Z,7.27
2018-06-21T03:34:01.586Z,8.07
2018-06-21T03:36:29.077Z,10.60
2018-06-21T03:38:56.557Z,8.03
2018-06-21T03:41:24.052Z,12.17
2018-06-21T03:43:51.594Z,8.80
2018-06-21T03:46:19.057Z,8.80
2018-06-21T03:48:46.533Z,9.30
2018-06-21T03:51:13.995Z,8.47
2018-06-21T03:53:41.465Z,10.57
2018-06-21T03:56:08.958Z,9.23
2018-06-21T03:58:36.442Z,11.03
2018-06-21T04:01:03.989Z,11.27
2018-06-21T04:03:31.612Z,10.37
2018-06-21T04:05:59.087Z,13.40
2018-06-21T04:08:26.557Z,11.50
2018-06-21T04:10:54.136Z,10.70
2018-06-21T04:13:21.602Z,11.03
2018-06-21T04:15:49.094Z,11.57
2018-06-21T04:18:21.133Z,13.97
2018-06-21T04:20:49.034Z,14.57
2018-06-21T04:23:16.516Z,14.70
2018-06-21T04:25:44.232Z,15.03
2018-06-21T04:28:11.733Z,16.23
2018-06-21T04:30:39.188Z,14.40
2018-06-21T04:33:06.681Z,15.23
2018-06-21T04:35:34.141Z,17.10
2018-06-21T04:38:01.654Z,13.17
2018-06-21T04:40:29.113Z,14.87
2018-06-21T04:42:56.606Z,17.67
2018-06-21T04:45:24.107Z,17.00
2018-06-21T04:47:51.670Z,14.70
2018-06-21T04:50:19.136Z,13.70
2018-06-21T04:52:46.622Z,15.03
2018-06-21T04:55:14.202Z,14.27
2018-06-21T04:57:41.681Z,13.90
2018-06-21T05:00:09.226Z,16.77
2018-06-21T05:02:36.649Z,15.67
2018-06-21T05:05:04.189Z,15.80
2018-06-21T05:07:31.913Z,15.73
2018-06-21T05:09:59.406Z,16.13
2018-06-21T05:12:26.967Z,12.87
2018-06-21T05:14:54.453Z,14.80
2018-06-21T05:17:21.982Z,15.33
2018-06-21T05:19:49.628Z,14.93
2018-06-21T05:22:17.090Z,12.33
2018-06-21T05:24:44.573Z,13.80
2018-06-21T05:27:12.035Z,11.07
2018-06-21T05:29:39.472Z,14.57
2018-06-21T05:32:06.909Z,12.63
2018-06-21T05:34:34.330Z,13.60
2018-06-21T05:37:01.786Z,13.87
2018-06-21T05:39:29.211Z,10.80
2018-06-21T05:41:56.674Z,11.20
2018-06-21T05:44:24.100Z,8.47
2018-06-21T05:46:51.790Z,12.33
2018-06-21T05:49:19.186Z,10.03
2018-06-21T05:51:46.738Z,11.27
2018-06-21T05:54:14.164Z,12.97
2018-06-21T05:56:41.840Z,11.03
2018-06-21T05:59:09.292Z,7.73
2018-06-21T06:01:36.988Z,6.07
2018-06-21T06:04:04.919Z,7.00
2018-06-21T06:06:32.315Z,7.27
2018-06-21T06:08:59.754Z,6.60
2018-06-21T06:11:27.164Z,4.53
2018-06-21T06:13:54.596Z,5.70
2018-06-21T06:16:22.036Z,2.60
2018-06-21T06:18:49.460Z,2.83
2018-06-21T06:21:16.851Z,3.90
2018-06-21T06:23:44.299Z,4.23
2018-06-21T06:26:11.771Z,2.73
2018-06-21T06:28:39.232Z,4.30
2018-06-21T06:31:06.579Z,3.40
2018-06-21T06:33:34.740Z,4.73
2018-06-21T06:36:02.136Z,2.57
2018-06-21T06:38:29.539Z,4.67
2018-06-21T06:40:56.964Z,3.53
2018-06-21T06:43:24.379Z,3.20
2018-06-21T06:45:51.988Z,2.87
2018-06-21T06:48:19.401Z,5.13
2018-06-21T06:50:46.804Z,3.10
2018-06-21T06:53:14.221Z,4.93
2018-06-21T06:55:41.605Z,3.90
2018-06-21T06:58:09.278Z,6.57
2018-06-21T07:00:36.679Z,4.60
2018-06-21T07:03:04.280Z,5.13
2018-06-21T07:05:31.687Z,4.23
2018-06-21T07:07:59.146Z,6.27
2018-06-21T07:10:26.659Z,5.90
2018-06-21T07:12:54.072Z,3.37
2018-06-21T07:15:21.700Z,2.53
2018-06-21T07:17:49.095Z,7.53
2018-06-21T07:20:16.519Z,5.33
2018-06-21T07:22:43.938Z,6.47
2018-06-21T07:25:48.326Z,4.50
2018-06-21T07:28:24.116Z,2.40
2018-06-21T07:30:56.773Z,3.57
2018-06-21T07:33:26.961Z,3.50
2018-06-21T07:35:54.789Z,5.50
2018-06-21T07:38:22.194Z,5.57
2018-06-21T07:40:49.631Z,5.67
2018-06-21T07:43:17.062Z,4.93
2018-06-21T07:45:44.609Z,4.80
2018-06-21T07:48:12.015Z,6.67
2018-06-21T07:50:39.424Z,4.83
2018-06-21T07:53:06.864Z,4.30
2018-06-21T07:55:34.311Z,7.97
2018-06-21T07:58:01.740Z,4.57
2018-06-21T08:00:29.151Z,4.07
2018-06-21T08:02:56.556Z,3.30
2018-06-21T08:05:24.058Z,3.37
2018-06-21T08:13:25.062Z,3.63
